createdAt,value
2023-03-17T00:01:21.659Z,63.40
2023-03-17T00:03:51.504Z,63.40
2023-03-17T00:06:24.542Z,63.40
2023-03-17T00:08:52.353Z,63.40
2023-03-17T00:11:21.087Z,63.40
2023-03-17T00:13:49.699Z,63.40
2023-03-17T00:16:20.209Z,63.50
2023-03-17T00:18:50.432Z,63.40
2023-03-17T00:21:25.690Z,63.40
2023-03-17T00:23:53.674Z,63.40
2023-03-17T00:26:21.705Z,63.50
2023-03-17T00:28:50.954Z,63.40
2023-03-17T00:31:22.165Z,63.30
2023-03-17T00:33:53.916Z,63.40
2023-03-17T00:36:24.781Z,63.30
2023-03-17T00:38:53.058Z,63.30
2023-03-17T00:41:22.225Z,63.30
2023-03-17T00:43:50.652Z,63.30
2023-03-17T00:46:23.723Z,63.30
2023-03-17T00:48:52.943Z,63.30
2023-03-17T00:51:21.051Z,63.30
2023-03-17T00:53:48.925Z,63.30
2023-03-17T00:56:19.216Z,63.30
2023-03-17T00:58:48.151Z,63.30
2023-03-17T01:01:18.402Z,63.30
2023-03-17T01:03:48.283Z,63.30
2023-03-17T01:06:17.936Z,63.80
2023-03-17T01:08:46.438Z,63.30
2023-03-17T01:11:18.496Z,63.30
2023-03-17T01:13:48.498Z,63.30
2023-03-17T01:16:16.991Z,63.40
2023-03-17T01:18:45.566Z,63.30
2023-03-17T01:21:13.870Z,63.30
2023-03-17T01:23:43.566Z,63.30
2023-03-17T01:26:11.749Z,63.30
2023-03-17T01:28:39.531Z,63.30
2023-03-17T01:31:07.402Z,63.30
2023-03-17T01:33:35.192Z,63.30
2023-03-17T01:36:03.271Z,63.30
2023-03-17T01:38:31.188Z,63.30
2023-03-17T01:41:02.206Z,63.30
2023-03-17T01:43:30.928Z,63.30
2023-03-17T01:46:28.322Z,63.30
2023-03-17T01:49:05.595Z,63.30
2023-03-17T01:51:37.681Z,63.30
2023-03-17T01:54:09.285Z,63.30
2023-03-17T01:56:41.636Z,63.30
2023-03-17T01:59:15.726Z,63.30
2023-03-17T02:01:47.226Z,63.30
2023-03-17T02:04:16.151Z,63.30
2023-03-17T02:06:57.428Z,63.40
2023-03-17T02:09:27.491Z,63.30
2023-03-17T02:11:57.231Z,63.30
2023-03-17T02:14:25.481Z,63.30
2023-03-17T02:16:53.618Z,63.30
2023-03-17T02:19:21.659Z,63.30
2023-03-17T02:21:53.575Z,63.30
2023-03-17T02:24:31.940Z,63.40
2023-03-17T02:27:05.549Z,63.40
2023-03-17T02:29:36.076Z,63.40
2023-03-17T02:32:05.398Z,63.40
2023-03-17T02:34:33.942Z,63.30
2023-03-17T02:37:03.119Z,63.30
2023-03-17T02:39:31.805Z,63.40
2023-03-17T02:41:59.702Z,63.40
2023-03-17T02:44:28.015Z,63.40
2023-03-17T02:46:56.859Z,63.30
2023-03-17T02:49:27.127Z,63.40
2023-03-17T02:51:55.266Z,63.40
2023-03-17T02:54:24.448Z,63.30
2023-03-17T02:56:52.253Z,63.40
2023-03-17T02:59:20.013Z,63.30
2023-03-17T03:01:48.497Z,63.40
2023-03-17T03:04:16.371Z,63.40
2023-03-17T03:06:44.680Z,63.40
2023-03-17T03:09:12.968Z,63.40
2023-03-17T03:11:42.860Z,63.40
2023-03-17T03:14:11.556Z,63.40
2023-03-17T03:16:39.648Z,63.40
2023-03-17T03:19:08.227Z,63.40
2023-03-17T03:21:36.675Z,63.40
2023-03-17T03:24:04.803Z,63.40
2023-03-17T03:26:32.812Z,63.50
2023-03-17T03:29:02.111Z,63.40
2023-03-17T03:31:30.073Z,63.40
2023-03-17T03:33:57.953Z,63.40
2023-03-17T03:36:26.769Z,63.40
2023-03-17T03:38:54.532Z,63.40
2023-03-17T03:41:22.502Z,63.40
2023-03-17T03:43:50.313Z,63.50
2023-03-17T03:46:19.780Z,63.50
2023-03-17T03:48:47.569Z,63.50
2023-03-17T03:51:15.540Z,63.50
2023-03-17T03:53:43.284Z,63.50
2023-03-17T03:56:11.238Z,63.60
2023-03-17T03:58:39.013Z,63.60
2023-03-17T04:01:07.871Z,63.60
2023-03-17T04:03:37.857Z,63.60
2023-03-17T04:06:06.240Z,63.60
2023-03-17T04:08:34.031Z,63.60
2023-03-17T04:11:01.789Z,63.60
2023-03-17T04:13:29.557Z,63.70
2023-03-17T04:15:57.310Z,63.70
2023-03-17T04:18:25.761Z,63.70
2023-03-17T04:20:54.890Z,63.70
2023-03-17T04:23:22.657Z,63.60
2023-03-17T04:25:51.864Z,63.70
2023-03-17T04:28:20.467Z,63.70
2023-03-17T04:30:48.258Z,63.70
2023-03-17T04:33:16.643Z,63.70
2023-03-17T04:35:44.461Z,63.70
2023-03-17T04:38:14.060Z,63.70
2023-03-17T04:40:41.835Z,63.70
2023-03-17T04:43:10.232Z,63.70
2023-03-17T04:45:38.669Z,63.70
2023-03-17T04:48:07.019Z,63.70
2023-03-17T04:50:34.901Z,63.70
2023-03-17T04:53:03.825Z,63.70
2023-03-17T04:55:33.056Z,63.70
2023-03-17T04:58:00.846Z,63.70
2023-03-17T05:00:29.130Z,63.70
2023-03-17T05:02:57.125Z,63.70
2023-03-17T05:05:24.932Z,63.70
2023-03-17T05:07:52.936Z,63.70
2023-03-17T05:10:20.977Z,63.70
2023-03-17T05:12:50.095Z,63.70
2023-03-17T05:15:18.002Z,63.70
2023-03-17T05:17:45.880Z,63.60
2023-03-17T05:20:14.666Z,63.60
2023-03-17T05:22:42.589Z,63.50
2023-03-17T05:25:10.701Z,63.50
2023-03-17T05:27:39.399Z,63.40
2023-03-17T05:30:10.163Z,64.20
2023-03-17T05:32:38.000Z,63.30
2023-03-17T05:35:06.419Z,63.30
2023-03-17T05:37:34.292Z,63.20
2023-03-17T05:40:02.884Z,63.20
2023-03-17T05:42:30.746Z,63.20
2023-03-17T05:44:58.526Z,63.10
2023-03-17T05:47:27.773Z,63.10
2023-03-17T05:49:56.010Z,63.10
2023-03-17T05:52:23.812Z,63.00
2023-03-17T05:54:52.278Z,62.90
2023-03-17T05:57:20.269Z,62.90
2023-03-17T05:59:48.285Z,62.80
2023-03-17T06:02:16.572Z,62.70
2023-03-17T06:04:45.678Z,62.80
2023-03-17T06:07:13.894Z,62.70
2023-03-17T06:09:41.713Z,62.70
2023-03-17T06:12:10.282Z,62.60
2023-03-17T06:14:38.053Z,62.60
2023-03-17T06:17:06.249Z,62.60
2023-03-17T06:19:34.087Z,62.60
2023-03-17T06:22:03.253Z,62.50
2023-03-17T06:24:31.210Z,62.90
2023-03-17T06:26:59.088Z,63.60
2023-03-17T06:29:28.634Z,64.00
2023-03-17T06:31:58.169Z,64.20
2023-03-17T06:34:29.234Z,64.20
2023-03-17T06:36:57.029Z,64.30
2023-03-17T06:39:26.573Z,64.40
2023-03-17T06:41:54.613Z,64.50
2023-03-17T06:44:22.364Z,64.70
2023-03-17T06:46:50.277Z,64.80
2023-03-17T06:49:18.083Z,65.60
2023-03-17T06:51:45.985Z,64.80
2023-03-17T06:54:13.873Z,64.80
2023-03-17T06:56:44.234Z,64.80
2023-03-17T06:59:13.249Z,64.80
2023-03-17T07:01:41.056Z,64.80
2023-03-17T07:04:09.443Z,65.00
2023-03-17T07:06:37.490Z,65.10
2023-03-17T07:09:05.620Z,65.10
2023-03-17T07:11:33.393Z,65.00
2023-03-17T07:14:02.750Z,64.80
2023-03-17T07:16:30.790Z,64.60
2023-03-17T07:18:59.677Z,64.40
2023-03-17T07:21:27.441Z,64.30
2023-03-17T07:23:55.218Z,64.20
2023-03-17T07:26:23.217Z,64.10
2023-03-17T07:28:51.853Z,64.00
2023-03-17T07:31:21.309Z,63.90
2023-03-17T07:33:49.125Z,63.90
2023-03-17T07:36:16.906Z,63.80
2023-03-17T07:38:44.888Z,63.70
2023-03-17T07:41:13.595Z,63.70
2023-03-17T07:43:41.676Z,63.70
2023-03-17T07:46:09.774Z,63.70
2023-03-17T07:48:42.153Z,63.80
2023-03-17T07:51:15.451Z,63.90
2023-03-17T07:53:45.033Z,64.00
2023-03-17T07:56:14.149Z,64.10
2023-03-17T07:58:42.026Z,64.10
2023-03-17T08:01:09.957Z,64.10
2023-03-17T08:03:41.392Z,64.00
2023-03-17T08:06:09.508Z,64.00
2023-03-17T08:08:37.308Z,64.00
2023-03-17T08:11:07.581Z,64.00
2023-03-17T08:13:35.850Z,64.00
2023-03-17T08:16:03.713Z,63.90
2023-03-17T08:18:31.915Z,63.80
2023-03-17T08:21:01.910Z,63.80
2023-03-17T08:23:29.725Z,63.80
2023-03-17T08:25:58.404Z,63.70
2023-03-17T08:28:27.098Z,63.70
2023-03-17T08:30:55.776Z,63.80
2023-03-17T08:33:23.615Z,63.70
2023-03-17T08:35:51.488Z,63.70
2023-03-17T08:38:20.620Z,63.60
2023-03-17T08:40:50.462Z,63.60
2023-03-17T08:43:18.611Z,63.60
2023-03-17T08:45:46.417Z,63.50
2023-03-17T08:48:14.237Z,63.70
2023-03-17T08:50:42.171Z,63.70
2023-03-17T08:53:10.000Z,63.70
2023-03-17T08:55:39.864Z,63.60
2023-03-17T08:58:07.653Z,63.60
2023-03-17T09:00:35.923Z,63.60
2023-03-17T09:03:03.736Z,63.60
2023-03-17T09:05:31.971Z,63.60
2023-03-17T09:07:59.989Z,63.60
2023-03-17T09:10:29.052Z,63.50
2023-03-17T09:13:02.870Z,63.50
2023-03-17T09:15:31.209Z,63.50
2023-03-17T09:17:59.069Z,63.50
2023-03-17T09:20:27.144Z,63.50
2023-03-17T09:22:56.338Z,63.40
2023-03-17T09:25:24.415Z,63.30
2023-03-17T09:27:52.252Z,63.30
2023-03-17T09:30:21.784Z,63.30
2023-03-17T09:32:49.818Z,63.20
2023-03-17T09:35:17.827Z,63.20
2023-03-17T09:37:46.217Z,63.20
2023-03-17T09:40:18.071Z,63.10
2023-03-17T09:42:57.976Z,63.10
2023-03-17T09:45:36.481Z,63.00
2023-03-17T09:48:32.313Z,63.00
2023-03-17T09:51:04.761Z,62.90
2023-03-17T09:53:36.456Z,62.90
2023-03-17T09:56:09.655Z,62.90
2023-03-17T09:58:40.409Z,62.80
2023-03-17T10:01:12.758Z,62.90
2023-03-17T10:03:40.811Z,62.80
2023-03-17T10:06:37.495Z,62.80
2023-03-17T10:09:26.204Z,62.70
2023-03-17T10:12:04.928Z,62.70
2023-03-17T10:14:43.042Z,62.70
2023-03-17T10:17:17.896Z,62.70
2023-03-17T10:19:49.534Z,62.70
2023-03-17T10:22:23.612Z,62.70
2023-03-17T10:24:55.340Z,62.70
2023-03-17T10:27:23.828Z,62.60
2023-03-17T10:29:51.737Z,62.40
2023-03-17T10:32:20.889Z,62.30
2023-03-17T10:34:49.919Z,62.10
2023-03-17T10:37:19.820Z,61.90
2023-03-17T10:39:49.371Z,61.70
2023-03-17T10:42:24.374Z,61.70
2023-03-17T10:44:54.968Z,61.70
2023-03-17T10:47:32.090Z,61.70
2023-03-17T10:50:05.377Z,61.80
2023-03-17T10:52:39.505Z,61.80
2023-03-17T10:55:10.525Z,61.80
2023-03-17T10:57:39.762Z,61.90
2023-03-17T11:00:17.955Z,62.20
2023-03-17T11:02:57.199Z,62.90
2023-03-17T11:05:26.527Z,63.80
2023-03-17T11:07:59.038Z,64.20
2023-03-17T11:10:30.180Z,64.20
2023-03-17T11:13:01.638Z,64.20
2023-03-17T11:15:33.692Z,64.40
2023-03-17T11:18:05.339Z,64.70
2023-03-17T11:20:54.678Z,64.80
2023-03-17T11:23:41.780Z,64.80
2023-03-17T11:26:25.815Z,64.90
2023-03-17T11:29:09.684Z,64.90
2023-03-17T11:31:47.644Z,65.00
2023-03-17T11:34:22.194Z,65.00
2023-03-17T11:37:00.129Z,65.10
2023-03-17T11:39:33.009Z,65.10
2023-03-17T11:42:12.412Z,65.00
2023-03-17T11:45:09.079Z,64.80
2023-03-17T11:47:47.891Z,64.80
2023-03-17T11:50:26.430Z,64.80
2023-03-17T11:53:08.217Z,64.60
2023-03-17T11:55:44.477Z,64.30
2023-03-17T11:58:17.481Z,64.10
2023-03-17T12:00:50.897Z,63.80
2023-03-17T12:03:23.325Z,63.70
2023-03-17T12:05:58.127Z,63.50
2023-03-17T12:08:32.118Z,63.30
2023-03-17T12:11:02.802Z,63.10
2023-03-17T12:13:39.738Z,62.90
2023-03-17T12:16:12.087Z,62.80
2023-03-17T12:18:43.151Z,62.70
2023-03-17T12:21:18.686Z,62.50
2023-03-17T12:23:49.392Z,62.40
2023-03-17T12:26:21.125Z,62.20
2023-03-17T12:28:55.177Z,62.20
2023-03-17T12:31:27.897Z,62.00
2023-03-17T12:34:00.571Z,61.90
2023-03-17T12:36:30.186Z,61.90
2023-03-17T12:39:05.213Z,61.80
2023-03-17T12:41:59.705Z,61.80
2023-03-17T12:44:41.500Z,61.80
2023-03-17T12:47:24.948Z,61.80
2023-03-17T12:50:21.326Z,61.80
2023-03-17T12:53:08.123Z,61.80
2023-03-17T12:55:36.895Z,61.80
2023-03-17T12:58:08.009Z,61.80
2023-03-17T13:00:50.655Z,61.80
2023-03-17T13:03:24.396Z,61.90
2023-03-17T13:05:55.157Z,61.90
2023-03-17T13:08:31.137Z,61.90
2023-03-17T13:11:20.817Z,61.90
2023-03-17T13:13:59.372Z,61.90
2023-03-17T13:16:33.253Z,61.90
2023-03-17T13:19:18.571Z,61.90
2023-03-17T13:21:50.519Z,62.00
2023-03-17T13:24:36.495Z,61.90
2023-03-17T13:27:05.536Z,61.90
2023-03-17T13:29:43.481Z,61.90
2023-03-17T13:32:44.859Z,61.90
2023-03-17T13:35:21.342Z,61.90
2023-03-17T13:38:28.790Z,61.90
2023-03-17T13:41:18.633Z,61.90
2023-03-17T13:44:06.577Z,61.90
2023-03-17T13:46:44.025Z,61.90
2023-03-17T13:49:22.212Z,61.90
2023-03-17T13:51:59.911Z,61.90
2023-03-17T13:54:34.590Z,61.90
2023-03-17T13:57:26.952Z,61.90
2023-03-17T14:00:01.477Z,61.90
2023-03-17T14:02:32.680Z,62.00
2023-03-17T14:05:03.229Z,62.00
2023-03-17T14:07:38.626Z,62.00
2023-03-17T14:10:08.980Z,62.00
2023-03-17T14:12:45.255Z,62.00
2023-03-17T14:15:21.121Z,62.10
2023-03-17T14:17:53.139Z,62.10
2023-03-17T14:20:23.539Z,62.20
2023-03-17T14:22:56.265Z,62.20
2023-03-17T14:25:26.960Z,62.30
2023-03-17T14:27:58.783Z,62.30
2023-03-17T14:30:29.527Z,62.40
2023-03-17T14:33:02.575Z,62.40
2023-03-17T14:35:32.098Z,62.50
2023-03-17T14:38:01.371Z,62.40
2023-03-17T14:40:32.289Z,62.50
2023-03-17T14:43:01.681Z,62.50
2023-03-17T14:45:39.493Z,62.50
2023-03-17T14:48:09.513Z,62.50
2023-03-17T14:50:37.333Z,62.50
2023-03-17T14:53:05.195Z,62.40
2023-03-17T14:55:39.690Z,62.40
2023-03-17T14:58:18.366Z,62.50
2023-03-17T15:00:49.651Z,62.40
2023-03-17T15:03:20.899Z,62.50
2023-03-17T15:05:50.373Z,62.40
2023-03-17T15:08:42.577Z,62.50
2023-03-17T15:11:19.469Z,62.40
2023-03-17T15:13:49.728Z,62.40
2023-03-17T15:16:22.372Z,62.30
2023-03-17T15:18:56.065Z,62.30
2023-03-17T15:21:28.935Z,62.30
2023-03-17T15:23:56.803Z,62.30
2023-03-17T15:26:32.023Z,62.30
2023-03-17T15:29:01.521Z,62.30
2023-03-17T15:31:30.656Z,62.30
2023-03-17T15:33:59.482Z,62.30
2023-03-17T15:36:32.860Z,62.30
2023-03-17T15:39:01.097Z,62.20
2023-03-17T15:41:29.008Z,62.20
2023-03-17T15:43:56.797Z,62.30
2023-03-17T15:46:30.822Z,62.30
2023-03-17T15:48:58.973Z,62.30
2023-03-17T15:51:27.171Z,62.30
2023-03-17T15:53:54.975Z,62.30
2023-03-17T15:56:22.986Z,62.40
2023-03-17T15:58:52.307Z,62.40
2023-03-17T16:01:21.178Z,62.40
2023-03-17T16:03:50.449Z,62.40
2023-03-17T16:06:21.158Z,62.40
2023-03-17T16:08:49.742Z,62.40
2023-03-17T16:11:19.237Z,62.40
2023-03-17T16:13:47.799Z,62.40
2023-03-17T16:16:22.540Z,62.30
2023-03-17T16:18:52.464Z,62.40
2023-03-17T16:21:20.886Z,62.30
2023-03-17T16:23:49.495Z,62.30
2023-03-17T16:26:17.338Z,62.20
2023-03-17T16:28:47.507Z,62.30
2023-03-17T16:31:19.968Z,62.20
2023-03-17T16:33:48.160Z,62.20
2023-03-17T16:36:20.596Z,62.20
2023-03-17T16:38:49.570Z,62.20
2023-03-17T16:41:20.437Z,62.10
2023-03-17T16:43:52.146Z,62.20
2023-03-17T16:46:22.053Z,62.10
2023-03-17T16:48:51.062Z,62.10
2023-03-17T16:51:20.597Z,62.20
2023-03-17T16:53:48.600Z,62.40
2023-03-17T16:56:18.663Z,62.60
2023-03-17T16:58:47.655Z,62.70
2023-03-17T17:01:19.140Z,62.80
2023-03-17T17:03:47.812Z,62.90
2023-03-17T17:06:15.796Z,62.90
2023-03-17T17:08:46.305Z,63.20
2023-03-17T17:11:14.853Z,63.20
2023-03-17T17:13:44.086Z,63.30
2023-03-17T17:16:21.207Z,63.40
2023-03-17T17:18:49.141Z,63.60
2023-03-17T17:21:16.925Z,63.80
2023-03-17T17:23:46.489Z,63.90
2023-03-17T17:26:14.268Z,64.00
2023-03-17T17:28:42.672Z,64.20
2023-03-17T17:31:10.669Z,64.40
2023-03-17T17:33:39.055Z,64.50
2023-03-17T17:36:12.584Z,64.90
2023-03-17T17:38:40.739Z,65.10
2023-03-17T17:41:11.505Z,65.40
2023-03-17T17:43:39.714Z,65.40
2023-03-17T17:46:17.565Z,65.40
2023-03-17T17:48:46.278Z,65.60
2023-03-17T17:51:14.419Z,65.70
2023-03-17T17:53:42.214Z,65.80
2023-03-17T17:56:15.195Z,66.00
2023-03-17T17:58:43.745Z,66.30
2023-03-17T18:01:13.882Z,66.20
2023-03-17T18:03:42.804Z,66.00
2023-03-17T18:06:11.590Z,66.00
2023-03-17T18:08:39.704Z,65.70
2023-03-17T18:11:07.701Z,65.90
2023-03-17T18:13:38.891Z,65.70
2023-03-17T18:16:09.658Z,65.70
2023-03-17T18:18:40.553Z,65.60
2023-03-17T18:21:08.325Z,65.70
2023-03-17T18:23:37.282Z,65.60
2023-03-17T18:26:06.559Z,65.50
2023-03-17T18:28:35.922Z,65.50
2023-03-17T18:31:09.480Z,65.50
2023-03-17T18:33:37.828Z,65.50
2023-03-17T18:36:06.686Z,65.70
2023-03-17T18:38:35.616Z,65.60
2023-03-17T18:41:03.970Z,65.60
2023-03-17T18:43:31.743Z,65.60
2023-03-17T18:46:01.139Z,65.60
2023-03-17T18:48:28.973Z,65.60
2023-03-17T18:50:56.746Z,65.70
2023-03-17T18:53:24.783Z,65.60
2023-03-17T18:55:52.597Z,65.60
2023-03-17T18:58:20.461Z,65.70
2023-03-17T19:00:50.141Z,65.70
2023-03-17T19:03:19.333Z,65.60
2023-03-17T19:05:47.151Z,65.60
2023-03-17T19:08:16.238Z,65.60
2023-03-17T19:10:44.861Z,65.70
2023-03-17T19:13:12.726Z,65.70
2023-03-17T19:15:41.387Z,65.70
2023-03-17T19:18:09.733Z,65.70
2023-03-17T19:20:38.878Z,65.70
2023-03-17T19:23:07.823Z,65.80
2023-03-17T19:25:36.669Z,65.80
2023-03-17T19:28:05.261Z,65.90
2023-03-17T19:30:33.474Z,65.80
2023-03-17T19:33:01.518Z,65.90
2023-03-17T19:35:29.308Z,65.90
2023-03-17T19:37:58.644Z,65.80
2023-03-17T19:40:26.607Z,65.80
2023-03-17T19:42:54.403Z,65.80
2023-03-17T19:45:22.176Z,65.90
2023-03-17T19:47:49.941Z,65.90
2023-03-17T19:50:18.007Z,65.90
2023-03-17T19:52:46.494Z,65.90
2023-03-17T19:55:16.008Z,65.90
2023-03-17T19:57:43.794Z,65.90
2023-03-17T20:00:12.861Z,65.90
2023-03-17T20:02:41.203Z,65.90
2023-03-17T20:05:09.686Z,65.90
2023-03-17T20:07:37.692Z,66.00
2023-03-17T20:10:07.614Z,66.00
2023-03-17T20:12:37.988Z,66.00
2023-03-17T20:15:06.917Z,66.00
2023-03-17T20:17:35.204Z,66.00
2023-03-17T20:20:03.400Z,66.10
2023-03-17T20:22:32.348Z,66.10
2023-03-17T20:25:00.422Z,66.10
2023-03-17T20:27:28.839Z,66.10
2023-03-17T20:29:58.952Z,66.10
2023-03-17T20:32:27.544Z,66.10
2023-03-17T20:34:55.436Z,66.10
2023-03-17T20:37:24.728Z,66.10
2023-03-17T20:39:54.182Z,66.10
2023-03-17T20:42:22.639Z,66.10
2023-03-17T20:44:52.863Z,66.10
2023-03-17T20:47:22.228Z,66.10
2023-03-17T20:49:50.602Z,66.10
2023-03-17T20:52:18.360Z,66.10
2023-03-17T20:54:46.712Z,66.00
2023-03-17T20:57:15.889Z,66.00
2023-03-17T20:59:45.177Z,65.90
2023-03-17T21:02:16.821Z,65.90
2023-03-17T21:04:48.724Z,65.90
2023-03-17T21:07:18.069Z,65.80
2023-03-17T21:09:46.740Z,65.80
2023-03-17T21:12:16.036Z,66.50
2023-03-17T21:14:44.100Z,65.50
2023-03-17T21:17:12.565Z,65.50
2023-03-17T21:19:40.679Z,65.40
2023-03-17T21:22:09.884Z,65.40
2023-03-17T21:24:39.711Z,65.40
2023-03-17T21:27:09.885Z,65.40
2023-03-17T21:29:39.679Z,65.40
2023-03-17T21:32:08.312Z,65.40
2023-03-17T21:34:37.056Z,66.20
2023-03-17T21:37:05.311Z,65.30
2023-03-17T21:39:36.163Z,65.30
2023-03-17T21:42:04.194Z,65.30
2023-03-17T21:44:32.347Z,66.20
2023-03-17T21:47:02.437Z,65.30
2023-03-17T21:49:30.345Z,65.30
2023-03-17T21:51:58.127Z,65.30
2023-03-17T21:54:26.322Z,65.30
2023-03-17T21:56:56.147Z,65.40
2023-03-17T21:59:24.810Z,65.30
2023-03-17T22:01:53.297Z,65.30
2023-03-17T22:04:21.112Z,66.20
2023-03-17T22:06:48.928Z,65.50
2023-03-17T22:09:19.150Z,65.30
2023-03-17T22:11:47.090Z,65.30
2023-03-17T22:14:19.847Z,65.30
2023-03-17T22:16:48.232Z,65.30
2023-03-17T22:19:18.228Z,65.30
2023-03-17T22:21:47.174Z,65.30
2023-03-17T22:24:15.602Z,65.30
2023-03-17T22:26:43.442Z,65.30
2023-03-17T22:29:11.202Z,65.40
2023-03-17T22:31:41.931Z,65.40
2023-03-17T22:34:10.269Z,65.30
2023-03-17T22:36:38.414Z,65.30
2023-03-17T22:39:08.772Z,65.40
2023-03-17T22:41:36.771Z,65.30
2023-03-17T22:44:04.884Z,65.30
2023-03-17T22:46:32.686Z,65.30
2023-03-17T22:49:01.845Z,65.30
2023-03-17T22:51:29.645Z,65.30
2023-03-17T22:53:57.717Z,65.40
2023-03-17T22:56:26.103Z,65.30
2023-03-17T22:58:55.301Z,65.30
2023-03-17T23:01:25.639Z,65.40
2023-03-17T23:03:54.676Z,65.30
2023-03-17T23:06:23.869Z,65.30
2023-03-17T23:08:52.173Z,65.30
2023-03-17T23:11:23.058Z,65.30
2023-03-17T23:13:52.510Z,65.30
2023-03-17T23:16:21.962Z,65.40
2023-03-17T23:18:49.840Z,65.30
2023-03-17T23:21:26.315Z,65.30
2023-03-17T23:23:54.098Z,65.30
2023-03-17T23:26:22.342Z,65.30
2023-03-17T23:28:50.431Z,65.30
2023-03-17T23:31:19.357Z,65.30
2023-03-17T23:33:47.700Z,65.30
2023-03-17T23:36:16.962Z,65.40
2023-03-17T23:38:46.788Z,65.50
2023-03-17T23:41:16.122Z,65.40
2023-03-17T23:43:44.012Z,65.50
2023-03-17T23:46:12.907Z,65.50
2023-03-17T23:48:42.863Z,65.40
2023-03-17T23:51:12.305Z,65.40
2023-03-17T23:53:40.555Z,65.40
2023-03-17T23:56:11.169Z,65.30
2023-03-17T23:58:38.942Z,65.40
